Time;durP1;ratioP1;P1;durP2;ratioP2;P2;SDS_P1;SDS_P2;PMS_P1;PMS_P2;Temp;Humidity;BMP_temperature;BMP_pressure;BME280_temperature;BME280_humidity;BME280_pressure;Samples;Min_cycle;Max_cycle;Signal;HPM_P1;HPM_P2
2021/08/27 00:01:26;;;;;;;4.13;1.00;;;;;;;;;;5001333;28;20056;-80
2021/08/27 00:03:52;;;;;;;5.63;0.90;;;;;;;;;;5034539;28;20036;-80
2021/08/27 00:06:18;;;;;;;3.42;0.90;;;;;;;;;;5033019;28;20071;-80
2021/08/27 00:08:43;;;;;;;5.53;0.98;;;;;;;;;;4997091;28;20030;-80
2021/08/27 00:11:10;;;;;;;3.47;0.80;;;;;;;;;;5024367;28;20108;-80
2021/08/27 00:13:35;;;;;;;3.58;0.88;;;;;;;;;;5029597;28;20433;-80
2021/08/27 00:16:01;;;;;;;5.32;1.10;;;;;;;;;;5014212;28;20091;-80
2021/08/27 00:18:26;;;;;;;4.15;0.80;;;;;;;;;;5032797;28;20049;-80
2021/08/27 00:20:51;;;;;;;5.72;1.00;;;;;;;;;;5016536;28;20366;-81
2021/08/27 00:23:17;;;;;;;4.90;0.88;;;;;;;;;;5033272;28;20022;-81
2021/08/27 00:25:42;;;;;;;4.15;0.85;;;;;;;;;;5032761;28;20111;-80
2021/08/27 00:28:09;;;;;;;4.20;0.90;;;;;;;;;;5016264;28;20025;-80
2021/08/27 00:30:34;;;;;;;4.22;0.77;;;;;;;;;;5032564;28;20026;-80
2021/08/27 00:33:00;;;;;;;5.30;1.00;;;;;;;;;;5029474;28;20026;-80
2021/08/27 00:35:25;;;;;;;2.65;0.70;;;;;;;;;;5028361;28;20469;-80
2021/08/27 00:37:51;;;;;;;10.48;1.00;;;;;;;;;;5032668;28;20076;-80
2021/08/27 00:40:17;;;;;;;6.15;0.90;;;;;;;;;;5032966;28;20112;-80
2021/08/27 00:42:43;;;;;;;3.33;1.40;;;;;;;;;;5032927;28;20108;-80
2021/08/27 00:45:09;;;;;;;5.18;0.75;;;;;;;;;;5016126;28;20121;-80
2021/08/27 00:47:35;;;;;;;6.55;1.00;;;;;;;;;;5015873;28;20126;-80
2021/08/27 00:50:00;;;;;;;6.43;1.10;;;;;;;;;;5032859;28;20040;-80
2021/08/27 00:52:26;;;;;;;4.80;0.68;;;;;;;;;;5032428;28;20124;-80
2021/08/27 00:54:53;;;;;;;6.70;1.35;;;;;;;;;;5016747;28;20393;-80
2021/08/27 00:57:19;;;;;;;4.68;1.05;;;;;;;;;;5024626;28;20473;-80
2021/08/27 00:59:45;;;;;;;4.35;0.70;;;;;;;;;;5037189;28;20025;-80
2021/08/27 01:02:10;;;;;;;6.40;0.80;;;;;;;;;;5037833;28;20034;-80
2021/08/27 01:04:38;;;;;;;4.40;0.75;;;;;;;;;;5000765;28;20041;-80
2021/08/27 01:07:27;;;;;;;3.97;1.02;;;;;;;;;;5020373;28;20114;-80
2021/08/27 01:10:06;;;;;;;5.82;1.00;;;;;;;;;;5037775;28;20104;-80
2021/08/27 01:13:20;;;;;;;3.47;0.80;;;;;;;;;;5037086;28;20496;-81
2021/08/27 01:16:03;;;;;;;4.28;0.90;;;;;;;;;;5035410;28;20029;-80
2021/08/27 01:18:49;;;;;;;4.15;1.55;;;;;;;;;;5037414;28;20118;-80
2021/08/27 01:21:30;;;;;;;3.47;0.80;;;;;;;;;;5037368;28;20109;-80
2021/08/27 01:24:04;;;;;;;4.05;1.00;;;;;;;;;;5021128;28;20025;-80
2021/08/27 01:26:46;;;;;;;5.07;1.10;;;;;;;;;;5037335;28;20087;-80
2021/08/27 01:29:14;;;;;;;4.70;0.88;;;;;;;;;;5037379;28;20392;-80
2021/08/27 01:32:03;;;;;;;5.65;0.90;;;;;;;;;;5035601;28;20017;-80
2021/08/27 01:34:43;;;;;;;6.60;0.90;;;;;;;;;;5036048;28;20033;-80
2021/08/27 01:37:13;;;;;;;4.30;1.00;;;;;;;;;;5035680;28;20053;-80
2021/08/27 01:39:47;;;;;;;3.33;0.80;;;;;;;;;;5035098;28;20477;-80
2021/08/27 01:42:14;;;;;;;4.40;0.93;;;;;;;;;;5037159;28;20017;-80
2021/08/27 01:44:43;;;;;;;2.58;0.93;;;;;;;;;;5037702;28;20057;-80
2021/08/27 01:47:10;;;;;;;2.85;0.90;;;;;;;;;;5036721;28;20040;-80
2021/08/27 01:49:36;;;;;;;4.13;0.88;;;;;;;;;;5036766;28;20033;-80
2021/08/27 01:52:05;;;;;;;3.65;0.80;;;;;;;;;;5019007;28;20029;-80
2021/08/27 01:54:31;;;;;;;4.50;1.00;;;;;;;;;;5036542;28;20029;-80
2021/08/27 01:56:57;;;;;;;3.13;0.75;;;;;;;;;;5036736;28;20469;-80
2021/08/27 01:59:27;;;;;;;5.72;1.00;;;;;;;;;;5035305;28;20568;-80
2021/08/27 02:01:53;;;;;;;2.80;0.80;;;;;;;;;;5035628;28;20048;-80
2021/08/27 02:04:19;;;;;;;2.17;0.80;;;;;;;;;;5010544;28;20030;-80
2021/08/27 02:06:47;;;;;;;2.80;0.75;;;;;;;;;;5048076;28;20493;-80
2021/08/27 02:09:14;;;;;;;4.03;0.88;;;;;;;;;;5036033;28;20034;-80
2021/08/27 02:11:40;;;;;;;3.08;1.10;;;;;;;;;;5035212;28;20037;-80
2021/08/27 02:14:06;;;;;;;3.22;1.17;;;;;;;;;;5034899;28;20381;-80
2021/08/27 02:16:32;;;;;;;5.68;1.00;;;;;;;;;;5035345;28;20504;-80
2021/08/27 02:18:58;;;;;;;4.45;0.93;;;;;;;;;;5018898;28;20140;-80
2021/08/27 02:21:27;;;;;;;3.45;1.00;;;;;;;;;;5018521;28;20040;-80
2021/08/27 02:23:54;;;;;;;6.35;1.10;;;;;;;;;;5034423;28;20025;-80
2021/08/27 02:26:21;;;;;;;3.63;1.00;;;;;;;;;;5034571;28;20021;-80
2021/08/27 02:28:48;;;;;;;3.58;0.90;;;;;;;;;;5034957;28;20444;-80
2021/08/27 02:31:13;;;;;;;4.60;1.05;;;;;;;;;;5035852;28;20113;-80
2021/08/27 02:33:45;;;;;;;2.60;0.95;;;;;;;;;;5018199;28;20124;-80
2021/08/27 02:36:16;;;;;;;3.20;1.13;;;;;;;;;;5035954;28;20025;-80
2021/08/27 02:38:44;;;;;;;4.80;1.60;;;;;;;;;;5034733;28;20029;-80
2021/08/27 02:41:10;;;;;;;3.22;0.98;;;;;;;;;;5034702;28;20033;-80
2021/08/27 02:43:35;;;;;;;4.75;1.23;;;;;;;;;;4998989;28;20363;-80
2021/08/27 02:46:01;;;;;;;5.05;1.25;;;;;;;;;;5034942;28;20358;-80
2021/08/27 02:48:26;;;;;;;5.53;1.20;;;;;;;;;;5034821;28;20587;-80
2021/08/27 02:51:04;;;;;;;4.40;1.00;;;;;;;;;;5034615;28;20128;-80
2021/08/27 02:53:34;;;;;;;4.38;1.20;;;;;;;;;;5034334;28;20104;-80
2021/08/27 02:56:07;;;;;;;6.55;1.10;;;;;;;;;;5035733;28;20025;-80
2021/08/27 02:58:34;;;;;;;;;;;;;;;;;;5036477;28;20033;-80
2021/08/27 03:01:18;;;;;;;3.83;1.00;;;;;;;;;;5034487;28;19948;-80
2021/08/27 03:04:08;;;;;;;6.00;1.10;;;;;;;;;;5022873;28;20021;-80
2021/08/27 03:06:51;;;;;;;3.45;0.90;;;;;;;;;;5034069;28;20488;-80
2021/08/27 03:09:17;;;;;;;7.13;1.13;;;;;;;;;;5034475;28;20032;-80
2021/08/27 03:11:57;;;;;;;4.63;1.30;;;;;;;;;;5044750;28;20416;-80
2021/08/27 03:14:30;;;;;;;4.68;1.02;;;;;;;;;;5035219;28;20029;-80
2021/08/27 03:17:00;;;;;;;5.22;1.10;;;;;;;;;;5034964;28;20022;-80
2021/08/27 03:19:35;;;;;;;5.85;1.20;;;;;;;;;;5035135;28;20049;-80
2021/08/27 03:22:13;;;;;;;7.75;1.20;;;;;;;;;;5035404;28;20358;-80
2021/08/27 03:24:41;;;;;;;4.18;0.90;;;;;;;;;;5033655;28;20566;-80
2021/08/27 03:27:16;;;;;;;7.40;1.00;;;;;;;;;;5035347;28;20031;-80
2021/08/27 03:29:46;;;;;;;6.65;1.20;;;;;;;;;;5032005;28;20113;-80
2021/08/27 03:32:13;;;;;;;5.47;1.00;;;;;;;;;;5035083;28;20108;-80
2021/08/27 03:34:41;;;;;;;7.30;1.10;;;;;;;;;;5034230;28;20124;-79
2021/08/27 03:37:07;;;;;;;6.60;1.40;;;;;;;;;;5035261;28;20113;-80
2021/08/27 03:39:36;;;;;;;2.17;1.00;;;;;;;;;;5033677;28;20091;-80
2021/08/27 03:42:02;;;;;;;4.30;0.90;;;;;;;;;;5030383;28;20087;-80
2021/08/27 03:44:30;;;;;;;9.00;1.40;;;;;;;;;;5032625;28;20461;-80
2021/08/27 03:46:56;;;;;;;4.57;1.10;;;;;;;;;;5017331;28;20093;-80
2021/08/27 03:49:21;;;;;;;4.28;1.08;;;;;;;;;;5033229;28;20085;-80
2021/08/27 03:51:47;;;;;;;7.07;1.55;;;;;;;;;;5014154;28;20026;-80
2021/08/27 03:54:14;;;;;;;5.15;1.13;;;;;;;;;;5033284;28;20029;-80
2021/08/27 03:56:42;;;;;;;5.82;1.30;;;;;;;;;;5034541;28;20370;-80
2021/08/27 03:59:07;;;;;;;6.35;1.42;;;;;;;;;;5034535;28;20495;-80
2021/08/27 04:01:34;;;;;;;4.15;1.23;;;;;;;;;;5014464;28;20026;-80
2021/08/27 04:03:59;;;;;;;8.43;1.50;;;;;;;;;;5016641;28;20075;-80
2021/08/27 04:06:25;;;;;;;8.85;1.50;;;;;;;;;;5013522;28;20469;-80
2021/08/27 04:08:50;;;;;;;7.47;1.70;;;;;;;;;;5037825;28;20397;-80
2021/08/27 04:11:17;;;;;;;8.02;2.22;;;;;;;;;;5032647;28;20036;-80
2021/08/27 04:13:44;;;;;;;3.83;1.50;;;;;;;;;;5033076;28;20033;-80
2021/08/27 04:16:10;;;;;;;3.35;1.42;;;;;;;;;;5034232;28;20075;-80
2021/08/27 04:18:36;;;;;;;6.13;1.90;;;;;;;;;;5034239;28;20049;-80
2021/08/27 04:21:02;;;;;;;5.57;1.90;;;;;;;;;;5032918;28;20037;-80
2021/08/27 04:23:28;;;;;;;6.88;1.88;;;;;;;;;;5034004;28;20022;-80
2021/08/27 04:25:53;;;;;;;5.18;1.38;;;;;;;;;;5034427;28;20048;-80
2021/08/27 04:28:18;;;;;;;8.32;1.83;;;;;;;;;;5032798;28;20132;-80
2021/08/27 04:30:45;;;;;;;7.00;1.20;;;;;;;;;;5034110;28;20037;-80
2021/08/27 04:33:11;;;;;;;7.50;1.95;;;;;;;;;;5021376;28;20029;-80
2021/08/27 04:35:36;;;;;;;6.05;1.48;;;;;;;;;;5031204;28;20461;-80
2021/08/27 04:38:02;;;;;;;5.20;1.30;;;;;;;;;;5034204;28;20079;-80
2021/08/27 04:40:27;;;;;;;4.45;1.23;;;;;;;;;;5016154;28;20505;-80
2021/08/27 04:42:53;;;;;;;5.88;1.30;;;;;;;;;;5032849;28;20028;-80
2021/08/27 04:45:19;;;;;;;5.50;1.20;;;;;;;;;;5032455;28;20064;-80
2021/08/27 04:47:44;;;;;;;7.32;1.35;;;;;;;;;;5033980;28;20539;-80
2021/08/27 04:50:10;;;;;;;6.32;1.17;;;;;;;;;;5032572;28;20064;-80
2021/08/27 04:52:36;;;;;;;5.47;1.20;;;;;;;;;;5033016;28;20026;-80
2021/08/27 04:55:02;;;;;;;2.70;0.90;;;;;;;;;;4999657;28;20893;-80
2021/08/27 04:57:29;;;;;;;4.82;1.40;;;;;;;;;;5032412;28;20017;-80
2021/08/27 04:59:55;;;;;;;3.70;1.13;;;;;;;;;;5032574;28;20033;-80
2021/08/27 05:02:20;;;;;;;7.47;1.30;;;;;;;;;;5012916;28;20030;-80
2021/08/27 05:04:46;;;;;;;4.75;1.05;;;;;;;;;;5027477;28;20397;-80
2021/08/27 05:07:11;;;;;;;4.43;1.08;;;;;;;;;;5032695;28;20029;-80
2021/08/27 05:09:37;;;;;;;6.22;1.48;;;;;;;;;;5032463;28;20036;-80
2021/08/27 05:12:03;;;;;;;7.78;2.30;;;;;;;;;;5033711;28;20413;-80
2021/08/27 05:14:28;;;;;;;5.80;1.17;;;;;;;;;;5033751;28;20497;-80
2021/08/27 05:16:53;;;;;;;4.75;0.90;;;;;;;;;;5015937;28;20025;-80
2021/08/27 05:19:19;;;;;;;4.78;1.40;;;;;;;;;;5032338;28;20045;-80
2021/08/27 05:21:44;;;;;;;6.07;1.08;;;;;;;;;;5034025;28;20029;-80
2021/08/27 05:24:10;;;;;;;3.88;1.10;;;;;;;;;;5029041;28;20116;-80
2021/08/27 05:26:35;;;;;;;6.65;1.40;;;;;;;;;;5028918;28;20539;-80
2021/08/27 05:29:02;;;;;;;5.90;1.30;;;;;;;;;;5015920;28;20026;-80
2021/08/27 05:31:28;;;;;;;6.13;1.30;;;;;;;;;;5033170;28;20018;-80
2021/08/27 05:33:53;;;;;;;4.60;1.23;;;;;;;;;;5033447;28;20037;-80
2021/08/27 05:36:19;;;;;;;2.88;0.82;;;;;;;;;;5032033;28;20477;-80
2021/08/27 05:38:45;;;;;;;7.18;1.20;;;;;;;;;;5032289;28;20029;-80
2021/08/27 05:41:10;;;;;;;4.45;1.00;;;;;;;;;;5019103;28;20469;-80
2021/08/27 05:43:36;;;;;;;5.05;1.00;;;;;;;;;;5035891;28;20391;-80
2021/08/27 05:46:02;;;;;;;5.25;1.00;;;;;;;;;;5036301;28;20451;-80
2021/08/27 05:48:27;;;;;;;4.38;1.00;;;;;;;;;;5020132;28;20044;-80
2021/08/27 05:50:54;;;;;;;4.93;1.35;;;;;;;;;;5019496;28;20440;-80
2021/08/27 05:53:19;;;;;;;3.20;1.00;;;;;;;;;;5036966;28;20021;-80
2021/08/27 05:55:45;;;;;;;5.55;0.93;;;;;;;;;;5037180;28;20044;-80
2021/08/27 05:58:10;;;;;;;4.35;0.85;;;;;;;;;;5016063;28;20040;-80
2021/08/27 06:00:36;;;;;;;2.97;1.60;;;;;;;;;;5015543;28;20060;-80
2021/08/27 06:03:01;;;;;;;6.20;1.00;;;;;;;;;;5016192;28;20046;-80
2021/08/27 06:05:27;;;;;;;3.13;0.98;;;;;;;;;;5030855;28;20036;-80
2021/08/27 06:07:53;;;;;;;4.13;0.90;;;;;;;;;;5036933;28;20492;-80
2021/08/27 06:10:18;;;;;;;3.92;0.75;;;;;;;;;;5040591;28;20396;-80
2021/08/27 06:12:44;;;;;;;3.40;0.95;;;;;;;;;;5035110;28;20030;-80
2021/08/27 06:15:11;;;;;;;5.82;1.02;;;;;;;;;;5035236;28;20088;-80
2021/08/27 06:17:37;;;;;;;3.63;0.80;;;;;;;;;;5034903;28;20033;-80
2021/08/27 06:20:04;;;;;;;2.92;0.80;;;;;;;;;;5035493;28;20039;-80
2021/08/27 06:22:29;;;;;;;4.97;1.05;;;;;;;;;;5035999;28;20474;-80
2021/08/27 06:24:55;;;;;;;7.75;1.20;;;;;;;;;;5036338;28;20025;-80
2021/08/27 06:27:20;;;;;;;2.80;0.73;;;;;;;;;;5017426;28;20041;-80
2021/08/27 06:29:46;;;;;;;4.50;1.52;;;;;;;;;;5034744;28;20116;-80
2021/08/27 06:32:11;;;;;;;3.70;1.10;;;;;;;;;;5037152;28;20029;-80
2021/08/27 06:34:37;;;;;;;2.83;0.73;;;;;;;;;;5034941;28;20473;-80
2021/08/27 06:37:02;;;;;;;2.80;0.90;;;;;;;;;;5036168;28;20034;-80
2021/08/27 06:39:28;;;;;;;5.20;0.90;;;;;;;;;;5018157;28;20057;-80
2021/08/27 06:41:54;;;;;;;2.65;0.70;;;;;;;;;;5031229;28;20021;-80
2021/08/27 06:44:20;;;;;;;5.35;0.80;;;;;;;;;;5026560;28;20465;-80
2021/08/27 06:46:46;;;;;;;3.47;1.25;;;;;;;;;;5031244;28;20474;-80
2021/08/27 06:49:12;;;;;;;4.85;0.90;;;;;;;;;;5023183;28;20034;-80
2021/08/27 06:51:40;;;;;;;5.35;0.88;;;;;;;;;;5036047;28;20021;-80
2021/08/27 06:54:06;;;;;;;6.07;1.02;;;;;;;;;;5034756;28;20067;-80
2021/08/27 06:56:32;;;;;;;6.15;1.00;;;;;;;;;;5015274;28;20112;-80
2021/08/27 06:58:57;;;;;;;3.53;1.10;;;;;;;;;;5028662;28;20036;-80
2021/08/27 07:01:23;;;;;;;6.22;1.20;;;;;;;;;;5024907;28;20025;-80
2021/08/27 07:03:48;;;;;;;4.22;1.10;;;;;;;;;;5002011;28;20024;-80
2021/08/27 07:06:14;;;;;;;5.07;1.20;;;;;;;;;;5035064;28;20055;-80
2021/08/27 07:08:40;;;;;;;4.55;0.85;;;;;;;;;;5034405;28;20076;-80
2021/08/27 07:11:06;;;;;;;7.22;1.25;;;;;;;;;;5041792;28;20028;-80
2021/08/27 07:13:31;;;;;;;8.05;1.23;;;;;;;;;;5030959;28;20021;-80
2021/08/27 07:15:57;;;;;;;4.18;1.15;;;;;;;;;;5029627;28;20444;-80
2021/08/27 07:18:26;;;;;;;5.05;1.05;;;;;;;;;;5035987;28;20037;-80
2021/08/27 07:20:53;;;;;;;5.00;1.27;;;;;;;;;;5035288;28;20033;-80
2021/08/27 07:23:18;;;;;;;6.57;1.08;;;;;;;;;;5035091;28;20057;-80
2021/08/27 07:25:44;;;;;;;3.42;1.00;;;;;;;;;;5034370;28;20473;-80
2021/08/27 07:28:09;;;;;;;4.25;1.15;;;;;;;;;;4999475;28;20030;-80
2021/08/27 07:30:36;;;;;;;12.40;1.50;;;;;;;;;;5030202;28;20025;-80
2021/08/27 07:33:02;;;;;;;3.97;1.13;;;;;;;;;;5033950;28;20504;-80
2021/08/27 07:35:27;;;;;;;7.93;1.33;;;;;;;;;;5035468;28;20017;-80
2021/08/27 07:37:53;;;;;;;4.55;1.10;;;;;;;;;;5001143;28;20033;-80
2021/08/27 07:40:18;;;;;;;6.75;1.42;;;;;;;;;;5034518;28;20385;-80
2021/08/27 07:42:44;;;;;;;4.57;1.10;;;;;;;;;;5033649;28;20033;-80
2021/08/27 07:45:10;;;;;;;3.60;1.10;;;;;;;;;;5031692;28;20030;-80
2021/08/27 07:47:36;;;;;;;3.58;0.88;;;;;;;;;;5033644;28;20354;-80
2021/08/27 07:50:03;;;;;;;4.65;1.13;;;;;;;;;;5035813;28;20044;-80
2021/08/27 07:52:29;;;;;;;6.78;1.13;;;;;;;;;;5002810;28;20477;-80
2021/08/27 07:54:54;;;;;;;3.97;0.98;;;;;;;;;;5019410;28;20034;-81
2021/08/27 07:57:20;;;;;;;8.15;1.30;;;;;;;;;;5015703;28;20029;-80
2021/08/27 07:59:45;;;;;;;5.20;1.00;;;;;;;;;;4997221;28;20021;-80
2021/08/27 08:02:10;;;;;;;6.75;1.08;;;;;;;;;;5010841;28;20022;-80
2021/08/27 08:04:36;;;;;;;4.82;0.93;;;;;;;;;;5033919;28;20056;-80
2021/08/27 08:07:02;;;;;;;2.47;1.00;;;;;;;;;;5030052;28;20026;-80
2021/08/27 08:09:27;;;;;;;4.03;1.17;;;;;;;;;;5034193;28;20104;-80
2021/08/27 08:11:53;;;;;;;3.60;0.75;;;;;;;;;;5026123;28;20090;-80
2021/08/27 08:14:18;;;;;;;5.38;1.17;;;;;;;;;;5030457;28;20025;-80
2021/08/27 08:16:44;;;;;;;4.22;0.90;;;;;;;;;;5015133;28;20030;-80
2021/08/27 08:19:10;;;;;;;5.97;1.10;;;;;;;;;;5029959;28;20049;-80
2021/08/27 08:21:37;;;;;;;3.22;1.00;;;;;;;;;;5035872;28;20464;-80
2021/08/27 08:24:03;;;;;;;4.65;1.15;;;;;;;;;;5036769;28;20104;-80
2021/08/27 08:26:29;;;;;;;6.05;1.15;;;;;;;;;;5034492;28;20107;-80
2021/08/27 08:28:55;;;;;;;5.22;1.20;;;;;;;;;;5015696;28;20033;-80
2021/08/27 08:31:21;;;;;;;3.95;1.25;;;;;;;;;;5032097;28;20124;-80
2021/08/27 08:33:49;;;;;;;3.33;1.00;;;;;;;;;;5015989;28;20027;-80
2021/08/27 08:36:15;;;;;;;7.93;1.20;;;;;;;;;;5032217;28;20017;-80
2021/08/27 08:38:40;;;;;;;5.82;1.20;;;;;;;;;;5032131;28;20029;-80
2021/08/27 08:41:06;;;;;;;5.38;1.20;;;;;;;;;;5015515;28;20033;-80
2021/08/27 08:43:32;;;;;;;6.80;1.23;;;;;;;;;;5015486;28;20084;-80
2021/08/27 08:45:58;;;;;;;4.07;1.10;;;;;;;;;;5015534;28;20128;-80
2021/08/27 08:48:24;;;;;;;8.30;1.20;;;;;;;;;;5031755;28;20030;-80
2021/08/27 08:50:51;;;;;;;6.13;1.10;;;;;;;;;;5031765;28;20052;-80
2021/08/27 08:53:17;;;;;;;3.25;1.20;;;;;;;;;;5028505;28;20386;-80
2021/08/27 08:55:43;;;;;;;6.00;1.92;;;;;;;;;;5026133;28;20026;-80
2021/08/27 08:58:09;;;;;;;3.55;1.10;;;;;;;;;;5033128;28;20052;-80
2021/08/27 09:00:37;;;;;;;6.00;1.40;;;;;;;;;;5030014;28;20026;-80
2021/08/27 09:03:03;;;;;;;8.27;1.55;;;;;;;;;;5012255;28;20018;-80
2021/08/27 09:05:29;;;;;;;6.25;1.35;;;;;;;;;;5028963;28;20393;-80
2021/08/27 09:07:54;;;;;;;5.70;1.50;;;;;;;;;;5031868;28;20034;-80
2021/08/27 09:10:21;;;;;;;6.97;1.40;;;;;;;;;;5036961;28;20036;-80
2021/08/27 09:12:48;;;;;;;6.32;1.50;;;;;;;;;;5033129;28;20021;-80
2021/08/27 09:15:15;;;;;;;6.55;1.83;;;;;;;;;;5034664;28;20079;-80
2021/08/27 09:17:48;;;;;;;3.33;0.90;;;;;;;;;;5036802;28;20488;-80
2021/08/27 09:20:15;;;;;;;5.80;1.25;;;;;;;;;;5036907;28;20025;-80
2021/08/27 09:22:58;;;;;;;2.80;0.90;;;;;;;;;;5035478;28;20388;-80
2021/08/27 09:25:29;;;;;;;6.32;1.30;;;;;;;;;;5035846;28;20018;-81
2021/08/27 09:28:18;;;;;;;1.55;0.73;;;;;;;;;;5036789;28;20140;-80
2021/08/27 09:30:46;;;;;;;2.65;0.90;;;;;;;;;;5037040;28;20026;-81
2021/08/27 09:33:16;;;;;;;3.40;0.80;;;;;;;;;;5036456;28;20030;-81
2021/08/27 09:35:59;;;;;;;2.95;0.90;;;;;;;;;;5025081;28;20025;-80
2021/08/27 09:38:26;;;;;;;;;;;;;;;;;;5035518;28;20029;-80
2021/08/27 09:41:12;;;;;;;2.58;0.95;;;;;;;;;;5036192;28;19968;-80
2021/08/27 09:43:52;;;;;;;5.72;1.13;;;;;;;;;;5034883;28;20026;-80
2021/08/27 09:46:37;;;;;;;4.43;1.20;;;;;;;;;;5035488;28;20422;-80
2021/08/27 09:49:22;;;;;;;3.70;0.80;;;;;;;;;;5032088;28;20026;-80
2021/08/27 09:51:48;;;;;;;2.65;0.90;;;;;;;;;;5036036;28;20045;-80
2021/08/27 09:54:23;;;;;;;3.38;0.95;;;;;;;;;;5018299;28;20056;-80
2021/08/27 09:56:52;;;;;;;6.15;1.30;;;;;;;;;;5036435;28;20484;-80
2021/08/27 09:59:17;;;;;;;3.45;1.05;;;;;;;;;;5018555;28;20547;-80
2021/08/27 10:01:50;;;;;;;3.35;1.13;;;;;;;;;;5015485;28;20033;-81
2021/08/27 10:04:16;;;;;;;3.93;1.20;;;;;;;;;;5033542;28;20079;-81
2021/08/27 10:06:43;;;;;;;5.13;1.25;;;;;;;;;;5023184;28;20087;-81
2021/08/27 10:09:09;;;;;;;4.20;1.35;;;;;;;;;;5028683;28;20091;-81
2021/08/27 10:11:35;;;;;;;6.53;1.45;;;;;;;;;;5040501;28;20469;-81
2021/08/27 10:14:01;;;;;;;7.07;1.40;;;;;;;;;;5026020;28;20063;-81
2021/08/27 10:16:30;;;;;;;5.18;1.63;;;;;;;;;;5031425;28;20398;-81
2021/08/27 10:18:56;;;;;;;5.90;1.50;;;;;;;;;;5034712;28;20109;-81
2021/08/27 10:21:22;;;;;;;5.65;1.48;;;;;;;;;;5035621;28;20028;-81
2021/08/27 10:23:48;;;;;;;4.72;1.30;;;;;;;;;;5034599;28;20147;-81
2021/08/27 10:26:16;;;;;;;5.50;1.50;;;;;;;;;;5035447;28;20052;-81
2021/08/27 10:28:42;;;;;;;5.97;1.38;;;;;;;;;;5034437;28;20032;-81
2021/08/27 10:31:08;;;;;;;5.40;1.60;;;;;;;;;;5017324;28;20037;-81
2021/08/27 10:33:39;;;;;;;5.38;1.20;;;;;;;;;;5034464;28;20034;-81
2021/08/27 10:36:31;;;;;;;7.70;1.52;;;;;;;;;;5034298;28;20218;-81
2021/08/27 10:39:01;;;;;;;4.15;1.20;;;;;;;;;;5035343;28;20116;-81
2021/08/27 10:41:32;;;;;;;4.35;1.30;;;;;;;;;;5035312;28;20079;-81
2021/08/27 10:44:00;;;;;;;4.43;1.40;;;;;;;;;;5035209;28;20013;-81
2021/08/27 10:46:44;;;;;;;5.28;1.30;;;;;;;;;;5035695;28;20088;-81
2021/08/27 10:49:16;;;;;;;6.00;1.25;;;;;;;;;;5035342;28;20028;-82
2021/08/27 10:51:47;;;;;;;6.80;1.70;;;;;;;;;;5030544;28;20064;-82
2021/08/27 10:54:14;;;;;;;4.22;1.30;;;;;;;;;;5028814;28;20038;-82
2021/08/27 10:56:55;;;;;;;5.50;1.27;;;;;;;;;;5033559;28;20053;-81
2021/08/27 10:59:22;;;;;;;6.45;1.20;;;;;;;;;;5034916;28;20026;-81
2021/08/27 11:01:57;;;;;;;4.63;1.35;;;;;;;;;;5033889;28;20448;-82
2021/08/27 11:04:25;;;;;;;5.93;1.42;;;;;;;;;;5033780;28;20389;-82
2021/08/27 11:06:53;;;;;;;7.75;1.73;;;;;;;;;;5035385;28;20076;-81
2021/08/27 11:09:26;;;;;;;3.55;1.10;;;;;;;;;;5035423;28;20035;-80
2021/08/27 11:12:18;;;;;;;3.92;1.00;;;;;;;;;;5042535;28;20073;-80
2021/08/27 11:14:52;;;;;;;3.78;0.80;;;;;;;;;;5035677;28;20056;-80
2021/08/27 11:17:18;;;;;;;4.25;1.00;;;;;;;;;;5030949;28;20025;-80
2021/08/27 11:19:56;;;;;;;3.17;1.00;;;;;;;;;;5031417;28;20057;-80
2021/08/27 11:22:23;;;;;;;2.00;0.82;;;;;;;;;;5033823;28;20041;-80
2021/08/27 11:25:16;;;;;;;3.58;1.02;;;;;;;;;;5034983;28;20492;-80
2021/08/27 11:28:10;;;;;;;3.85;1.13;;;;;;;;;;5019018;28;20441;-80
2021/08/27 11:30:38;;;;;;;6.13;1.10;;;;;;;;;;5026687;28;20083;-80
2021/08/27 11:33:03;;;;;;;5.25;1.33;;;;;;;;;;5030052;28;20030;-80
2021/08/27 11:35:30;;;;;;;4.70;1.30;;;;;;;;;;5006488;28;20456;-80
2021/08/27 11:38:05;;;;;;;3.97;1.50;;;;;;;;;;5032834;28;20061;-80
2021/08/27 11:40:31;;;;;;;5.88;1.55;;;;;;;;;;5032511;28;20030;-80
2021/08/27 11:42:56;;;;;;;6.30;1.40;;;;;;;;;;5034353;28;20017;-80
2021/08/27 11:45:25;;;;;;;4.47;1.10;;;;;;;;;;5034481;28;20024;-80
2021/08/27 11:47:55;;;;;;;3.90;1.30;;;;;;;;;;5034842;28;20025;-80
2021/08/27 11:50:46;;;;;;;4.57;1.40;;;;;;;;;;5034554;28;20481;-80
2021/08/27 11:53:11;;;;;;;4.07;1.33;;;;;;;;;;5034237;28;20032;-80
2021/08/27 11:55:41;;;;;;;4.57;1.60;;;;;;;;;;5032974;28;20455;-80
2021/08/27 11:58:07;;;;;;;5.40;1.88;;;;;;;;;;5017322;28;20021;-80
2021/08/27 12:00:38;;;;;;;9.65;1.60;;;;;;;;;;4997012;28;20044;-80
2021/08/27 12:03:04;;;;;;;4.93;1.35;;;;;;;;;;5034930;28;20029;-80
2021/08/27 12:05:31;;;;;;;3.60;0.90;;;;;;;;;;5034479;28;20029;-80
2021/08/27 12:08:02;;;;;;;6.97;1.40;;;;;;;;;;5032923;28;20021;-80
2021/08/27 12:10:31;;;;;;;4.28;1.35;;;;;;;;;;5037387;28;20028;-80
2021/08/27 12:12:58;;;;;;;5.40;1.13;;;;;;;;;;5033700;28;20104;-80
2021/08/27 12:15:26;;;;;;;5.35;1.20;;;;;;;;;;5032134;28;20037;-80
2021/08/27 12:18:01;;;;;;;5.43;1.30;;;;;;;;;;5032186;28;20120;-80
2021/08/27 12:20:30;;;;;;;5.00;1.30;;;;;;;;;;5033239;28;20085;-80
2021/08/27 12:23:01;;;;;;;5.70;1.40;;;;;;;;;;5033463;28;20034;-80
2021/08/27 12:25:30;;;;;;;5.75;0.90;;;;;;;;;;5000954;28;20032;-80
2021/08/27 12:27:57;;;;;;;4.60;1.10;;;;;;;;;;5032789;28;20075;-80
2021/08/27 12:30:24;;;;;;;6.47;1.52;;;;;;;;;;5032197;28;20384;-80
2021/08/27 12:32:50;;;;;;;4.57;1.23;;;;;;;;;;5012845;28;20030;-80
2021/08/27 12:35:23;;;;;;;5.25;1.35;;;;;;;;;;5025490;28;20022;-80
2021/08/27 12:37:50;;;;;;;7.35;1.42;;;;;;;;;;5032469;28;20017;-80
2021/08/27 12:40:18;;;;;;;6.78;1.73;;;;;;;;;;5013027;28;20469;-80
2021/08/27 12:43:04;;;;;;;8.35;1.63;;;;;;;;;;5027460;28;20021;-80
2021/08/27 12:45:53;;;;;;;9.63;1.58;;;;;;;;;;5033344;28;20049;-80
2021/08/27 12:48:21;;;;;;;7.95;1.73;;;;;;;;;;5033676;28;20022;-80
2021/08/27 12:50:48;;;;;;;7.47;1.65;;;;;;;;;;5035611;28;20361;-80
2021/08/27 12:53:14;;;;;;;6.68;1.63;;;;;;;;;;5037461;28;20028;-80
2021/08/27 12:55:39;;;;;;;5.10;1.38;;;;;;;;;;5036271;28;20033;-80
2021/08/27 12:58:05;;;;;;;8.95;1.60;;;;;;;;;;5036141;28;20068;-80
2021/08/27 13:00:32;;;;;;;5.35;1.40;;;;;;;;;;5035907;28;20117;-81
2021/08/27 13:03:09;;;;;;;7.45;1.60;;;;;;;;;;5036935;28;20021;-81
2021/08/27 13:05:37;;;;;;;9.23;2.00;;;;;;;;;;5037141;28;20052;-81
2021/08/27 13:08:14;;;;;;;6.60;1.67;;;;;;;;;;5019863;28;20037;-80
2021/08/27 13:11:03;;;;;;;8.10;1.75;;;;;;;;;;5040888;28;20045;-80
2021/08/27 13:13:32;;;;;;;9.05;1.60;;;;;;;;;;5037439;28;20031;-80
2021/08/27 13:16:12;;;;;;;5.28;1.30;;;;;;;;;;5037385;28;20025;-80
2021/08/27 13:18:39;;;;;;;4.78;1.08;;;;;;;;;;5036049;28;20493;-79
2021/08/27 13:21:04;;;;;;;3.60;1.13;;;;;;;;;;5037356;28;20022;-79
2021/08/27 13:23:31;;;;;;;5.97;1.48;;;;;;;;;;5016020;28;20462;-79
2021/08/27 13:25:58;;;;;;;6.90;1.17;;;;;;;;;;5026451;28;20033;-79
2021/08/27 13:28:26;;;;;;;6.25;1.58;;;;;;;;;;5019261;28;20029;-79
2021/08/27 13:30:52;;;;;;;6.20;1.65;;;;;;;;;;5035690;28;20025;-79
2021/08/27 13:33:18;;;;;;;6.40;1.80;;;;;;;;;;5019668;28;20064;-80
2021/08/27 13:35:43;;;;;;;9.38;1.83;;;;;;;;;;5037096;28;20029;-80
2021/08/27 13:38:10;;;;;;;7.47;1.80;;;;;;;;;;5035786;28;20025;-80
2021/08/27 13:40:35;;;;;;;15.85;2.53;;;;;;;;;;5036586;28;20030;-80
2021/08/27 13:43:01;;;;;;;9.27;1.95;;;;;;;;;;5035599;28;20154;-80
2021/08/27 13:45:26;;;;;;;7.20;2.00;;;;;;;;;;5035220;28;20041;-80
2021/08/27 13:47:51;;;;;;;8.15;1.65;;;;;;;;;;5035515;28;20140;-80
2021/08/27 13:50:17;;;;;;;9.05;1.73;;;;;;;;;;4999288;28;20088;-80
2021/08/27 13:52:44;;;;;;;9.95;1.95;;;;;;;;;;5015217;28;20400;-80
2021/08/27 13:55:13;;;;;;;9.27;1.70;;;;;;;;;;5032121;28;20033;-80
2021/08/27 13:57:39;;;;;;;8.32;1.85;;;;;;;;;;5033889;28;20469;-80
2021/08/27 14:00:06;;;;;;;9.52;2.10;;;;;;;;;;5036230;28;20066;-81
2021/08/27 14:02:32;;;;;;;6.75;2.10;;;;;;;;;;5036666;28;20373;-80
2021/08/27 14:04:57;;;;;;;8.00;1.73;;;;;;;;;;5014993;28;20033;-80
2021/08/27 14:07:22;;;;;;;11.65;2.40;;;;;;;;;;5029396;28;20393;-80
2021/08/27 14:09:48;;;;;;;7.60;2.00;;;;;;;;;;5001947;28;20025;-80
2021/08/27 14:12:13;;;;;;;5.43;1.85;;;;;;;;;;5018578;28;20047;-80
2021/08/27 14:14:39;;;;;;;6.93;2.00;;;;;;;;;;5018797;28;20033;-80
2021/08/27 14:17:05;;;;;;;7.18;1.60;;;;;;;;;;5035920;28;20106;-80
2021/08/27 14:19:30;;;;;;;10.00;1.90;;;;;;;;;;5031148;28;20413;-80
2021/08/27 14:21:55;;;;;;;7.93;1.70;;;;;;;;;;5016442;28;20043;-80
2021/08/27 14:24:21;;;;;;;7.20;1.50;;;;;;;;;;5036823;28;20022;-80
2021/08/27 14:26:46;;;;;;;6.72;1.70;;;;;;;;;;5036800;28;20028;-80
2021/08/27 14:29:12;;;;;;;6.43;1.95;;;;;;;;;;5035756;28;20462;-80
2021/08/27 14:31:40;;;;;;;8.77;2.08;;;;;;;;;;5034800;28;20140;-80
2021/08/27 14:34:06;;;;;;;6.35;1.58;;;;;;;;;;5036616;28;20037;-81
2021/08/27 14:36:32;;;;;;;5.50;1.40;;;;;;;;;;5035101;28;20025;-81
2021/08/27 14:38:58;;;;;;;6.50;1.77;;;;;;;;;;5036129;28;20037;-80
2021/08/27 14:41:24;;;;;;;5.25;1.90;;;;;;;;;;5035789;28;20036;-80
2021/08/27 14:43:49;;;;;;;5.18;1.38;;;;;;;;;;5035821;28;20017;-81
2021/08/27 14:46:15;;;;;;;4.82;1.58;;;;;;;;;;5034945;28;20512;-81
2021/08/27 14:48:40;;;;;;;6.50;1.80;;;;;;;;;;5018083;28;20088;-81
2021/08/27 14:51:07;;;;;;;5.85;1.35;;;;;;;;;;5032460;28;20079;-81